»·PEaware :: N9074Q KSAC-KSQL

N9074Q :: KSAC-KSQL

FLIGHT INFORMATION

Flight Status: Arrived
Operator: Privately registered:
United States
More flights under this callsign
Pilot: John N. (18861)
Aircraft: BEECH AIRCRAFT BONANZA
(BE36)
More flights by this aircraft type
Origin: KSAC Sacramento Executive
United States
Destination: KSQL San Carlos
United States
More flights between these airports :: More routes between these airports
Route: CEDES SJC
File this flight plan on PilotEdge
Remarks:
Altitude:
(Current/Filed)
60ft
Speed:
(Current/Filed)
160kts
Departed: 12-Jun-18 03:43 PM
Arrived: 12-Jun-18 04:21 PM
Distance/Time
Traveled:
70nm/0:38
Distance/Time
To Go:
Arrived

Flight Plot

Page will automatically refresh every two minutes.

Flight plan parsing failed; only flown route is shown


Map Options




Map Legend


Flown Route
Filed Route
Departure Airport
Arrival Airport
Navaid (VOR, NDB)
Fix

Horizontal Profiles

Position Reports

Time Latitude Longitude Heading Altitude Ground
Speed
12-Jun-18 15:31 38.512687 -121.498338 195 28ft 0kts
12-Jun-18 15:32 38.512687 -121.498338 195 28ft 0kts
12-Jun-18 15:33 38.512685 -121.498339 195 28ft 0kts
12-Jun-18 15:34 38.512683 -121.498340 195 28ft 0kts
12-Jun-18 15:35 38.512682 -121.498340 195 28ft 0kts
12-Jun-18 15:36 38.512680 -121.498341 195 28ft 0kts
12-Jun-18 15:37 38.512678 -121.498341 195 28ft 0kts
12-Jun-18 15:38 38.512677 -121.498342 195 28ft 0kts
12-Jun-18 15:39 38.512666 -121.498346 195 28ft 2kts
12-Jun-18 15:40 38.513832 -121.495317 26 28ft 34kts
12-Jun-18 15:41 38.514810 -121.494554 36 28ft 0kts
12-Jun-18 15:42 38.515115 -121.494095 80 28ft 14kts
12-Jun-18 15:43 38.499894 -121.493808 179 417ft 102kts
12-Jun-18 15:44 38.469665 -121.490767 175 1632ft 114kts
12-Jun-18 15:45 38.431477 -121.486340 178 1744ft 161kts
12-Jun-18 15:46 38.387945 -121.494432 182 2338ft 148kts
12-Jun-18 15:47 38.346997 -121.498951 188 3359ft 140kts
12-Jun-18 15:48 38.311604 -121.504363 188 4372ft 120kts
12-Jun-18 15:49 38.276490 -121.509968 187 5504ft 132kts
12-Jun-18 15:50 38.238315 -121.516072 187 6015ft 154kts
12-Jun-18 15:51 38.193225 -121.523266 187 5997ft 166kts
12-Jun-18 15:52 38.146502 -121.530702 187 5996ft 168kts
12-Jun-18 15:53 38.098720 -121.538291 187 5996ft 172kts
12-Jun-18 15:54 38.051247 -121.545818 187 5898ft 172kts
12-Jun-18 15:55 38.003165 -121.553434 187 5898ft 172kts
12-Jun-18 15:56 37.954760 -121.561096 187 5995ft 175kts
12-Jun-18 15:57 37.917159 -121.567029 187 6004ft 170kts
12-Jun-18 15:58 37.874475 -121.573772 187 6003ft 173kts
12-Jun-18 15:59 37.825193 -121.581544 187 6002ft 176kts
12-Jun-18 16:00 37.776820 -121.589156 187 6004ft 174kts
12-Jun-18 16:01 37.728671 -121.596725 187 5998ft 172kts
12-Jun-18 16:02 37.687674 -121.603168 187 5985ft 180kts
12-Jun-18 16:03 37.638704 -121.610846 187 5990ft 176kts
12-Jun-18 16:04 37.589310 -121.618582 187 5985ft 180kts
12-Jun-18 16:05 37.544396 -121.635608 233 6005ft 167kts
12-Jun-18 16:06 37.518302 -121.684108 236 6002ft 171kts
12-Jun-18 16:07 37.496901 -121.735976 246 5530ft 164kts
12-Jun-18 16:08 37.476734 -121.788502 245 4873ft 169kts
12-Jun-18 16:09 37.455818 -121.842448 245 4213ft 173kts
12-Jun-18 16:10 37.435703 -121.894215 245 3989ft 156kts
12-Jun-18 16:11 37.420000 -121.934582 245 4005ft 152kts
12-Jun-18 16:12 37.401162 -121.982958 245 4002ft 155kts
12-Jun-18 16:13 37.382562 -122.030612 246 4002ft 145kts
12-Jun-18 16:14 37.384709 -122.075798 316 3653ft 152kts
12-Jun-18 16:15 37.412435 -122.113635 313 2949ft 141kts
12-Jun-18 16:16 37.438958 -122.150015 314 2276ft 136kts
12-Jun-18 16:17 37.460444 -122.179530 316 1495ft 103kts
12-Jun-18 16:18 37.479405 -122.205537 311 926ft 99kts
12-Jun-18 16:19 37.494909 -122.229748 301 415ft 85kts
12-Jun-18 16:20 37.509318 -122.246644 312 15ft 62kts
12-Jun-18 16:21 37.511343 -122.250789 98 9ft 0kts

Navigation Log

Ident Type
Flight plan parsing failed, navigation log unavailable